METAR stanice u blizini

 

LYBE - Beograd / Surčin, Srbija
Ažurirano: 14/08/2020 15:30
Vedro
Vedro
 Pravac vetra SSZ
Vetar: SSZ 9 km/h
Temperatura: 30°C
Heat Index: 31°C
Tačka rose: 19°C
Vlažnost: 52%
Pritisak: 1012 hPa
Pregled: Vedro
Vidljivost: greater than 10 km
2020/08/14 13:30 LYBE 141330Z 34005KT 280V050 CAVOK 30/19 Q1012 NOSIG
LYBT - Beograd / Batajnica, Srbija
Ažurirano: 14/08/2020 15:30
Vedro
Vedro
 Pravac vetra ZSZ
Vetar: ZSZ 13 km/h
Temperatura: 31°C
Heat Index: 33°C
Tačka rose: 19°C
Vlažnost: 49%
Pritisak: 1011 hPa
Pregled: Vedro
Vidljivost: greater than 10 km
2020/08/14 13:30 LYBT 141330Z 29007KT 260V340 CAVOK 31/19 Q1011 NOSIG
LYVR - Vršac, Srbija
Ažurirano: 14/08/2020 15:30
Partly Cloudy
Partly Cloudy
 Pravac vetra ISI
Vetar: ISI 15 km/h
Temperatura: 30°C
Heat Index: 31°C
Tačka rose: 19°C
Vlažnost: 52%
Pritisak: 1012 hPa
Oblaci: Partly Cloudy
Vidljivost: 10 km
Cloud details: Partly Cloudy 1006 m
2020/08/14 13:30 LYVR 141330Z 06008KT 030V100 9999 SCT033TCU 30/19 Q1012
 
LYKV - Lađevci, Srbija
Ažurirano: 14/08/2020 15:30
Partly Cloudy
Partly Cloudy
 Pravac vetra ZSZ
Vetar: ZSZ 9 km/h
Temperatura: 29°C
Heat Index: 32°C
Tačka rose: 22°C
Vlažnost: 66%
Pritisak: 1012 hPa
Oblaci: Partly Cloudy
Vidljivost: 10 km
Cloud details: Partly Cloudy 1433 m
2020/08/14 13:30 LYKV 141330Z 29005KT 260V320 9999 SCT047 29/22 Q1012 NOSIG
LYNI - Niš, Srbija
Ažurirano: 14/08/2020 15:30
Few Clouds
Few Clouds
 Pravac vetra SSZ
Vetar: SSZ 6 km/h
Temperatura: 32°C
Tačka rose: 16°C
Vlažnost: 38%
Pritisak: 1012 hPa
Oblaci: Few Clouds
Vidljivost: 10 km
Cloud details: Few Clouds 1219 m
2020/08/14 13:30 LYNI 141330Z 34003KT 9999 FEW040TCU 32/16 Q1012 NOSIG
BKPR - Priština, Srbija
Ažurirano: 14/08/2020 15:30
Few Clouds
Few Clouds
 Pravac vetra varies
Vetar: varies 6 km/h
Temperatura: 30°C
Heat Index: 29°C
Tačka rose: 15°C
Vlažnost: 40%
Pritisak: 1014 hPa
Oblaci: Few Clouds
Vidljivost: 10 km
Cloud details: Few Clouds 1067 m
2020/08/14 13:30 BKPR 141330Z VRB03KT 9999 FEW035TCU 30/15 Q1014 NOSIG
 
LHPP - Pecs / Pogany, Hungary
Ažurirano: 14/08/2020 15:15
Partly Cloudy
Partly Cloudy
 Pravac vetra SZ
Vetar: SZ 11 km/h
Temperatura: 28°C
Heat Index: 29°C
Tačka rose: 18°C
Vlažnost: 55%
Pritisak: 1012 hPa
Oblaci: Partly Cloudy
Vidljivost: 10 km
Cloud details: Partly Cloudy 1097 m
2020/08/14 13:15 LHPP 141315Z 31006KT 9999 SCT036 28/18 Q1012
LHUD - Szeged, Hungary
Ažurirano: 04/07/2019 01:45
NOT Current
Vedro
Vedro
 Pravac vetra S
Vetar: S 7 km/h
Temperatura: 18°C
Tačka rose: 13°C
Vlažnost: 73%
Pritisak: 1019 hPa
Pregled: Vedro
Vidljivost: greater than 10 km
2019/07/03 23:45 LHUD 032345Z 35004KT CAVOK 18/13 Q1019
LRTR - Timisoara, Romania
Ažurirano: 14/08/2020 15:30
Light thunderstorm, Padavine, Few clouds
Light thunderstorm, Padavine, Few clouds
 Pravac vetra ISI
Vetar: ISI 17 km/h
Temperatura: 25°C
Tačka rose: 20°C
Vlažnost: 74%
Pritisak: 1012 hPa
Pregled: Light thunderstorm, Padavine
Oblaci: Few Clouds
Vidljivost: 10 km
Cloud details: Partly Cloudy 1341 m
Few Clouds 1372 m
2020/08/14 13:30 LRTR 141330Z 07009KT 9999 -TSRA SCT044 FEW045CB 25/20 Q1012
 
LRCV - Craiova, Romania
Ažurirano: 14/08/2020 15:30
Vedro
Vedro
 Pravac vetra varies
Vetar: varies 4 km/h
Temperatura: 33°C
Tačka rose: 12°C
Vlažnost: 28%
Pritisak: 1012 hPa
Pregled: Vedro
Vidljivost: greater than 10 km
2020/08/14 13:30 LRCV 141330Z VRB02KT CAVOK 33/12 Q1012
LBSF - Sofia, Bulgaria
Ažurirano: 14/08/2020 15:30
Vedro
Vedro
 Pravac vetra S
Vetar: S 11 km/h
Temperatura: 30°C
Tačka rose: 13°C
Vlažnost: 35%
Pritisak: 1014 hPa
Pregled: Vedro
Vidljivost: greater than 10 km
2020/08/14 13:30 LBSF 141330Z 35006KT 300V030 CAVOK 30/13 Q1014 NOSIG
LWSK - Skoplje, Makedonija
Ažurirano: 14/08/2020 15:30
Few Clouds
Few Clouds
 Pravac vetra JZ
Vetar: JZ 6 km/h
Temperatura: 33°C
Tačka rose: 17°C
Vlažnost: 38%
Pritisak: 1013 hPa
Oblaci: Few Clouds
Vidljivost: 10 km
Cloud details: Few Clouds 1219 m
2020/08/14 13:30 LWSK 141330Z 23003KT 9999 FEW040 33/17 Q1013 NOSIG
 
LYPG - Podgorica, Crna Gora
Ažurirano: 14/08/2020 15:30
Few Clouds
Few Clouds
 Pravac vetra JJI
Vetar: JJI 13 km/h
Temperatura: 34°C
Tačka rose: 17°C
Vlažnost: 36%
Pritisak: 1011 hPa
Oblaci: Few Clouds
Vidljivost: 10 km
Cloud details: Few Clouds 1219 m
2020/08/14 13:30 LYPG 141330Z 15007KT 110V180 9999 FEW040 34/17 Q1011 NOSIG
LQSA - Sarajevo, Bosna i Hercegovina
Ažurirano: 14/08/2020 15:30
Mostly Cloudy
Mostly Cloudy
 Pravac vetra SZ
Vetar: SZ 17 km/h
Temperatura: 24°C
Tačka rose: 15°C
Vlažnost: 57%
Pritisak: 1014 hPa
Oblaci: Mostly Cloudy
Vidljivost: 10 km
Cloud details: Few Clouds 1067 m
Mostly Cloudy 1524 m
2020/08/14 13:30 LQSA 141330Z 32009KT 290V010 9999 FEW035CB BKN050 24/15 Q1014 TEMPO TSRA
LDOS - Osijek, Hrvatksa
Ažurirano: 14/08/2020 15:30
Vedro
Vedro
 Pravac vetra SZ
Vetar: SZ 11 km/h
Temperatura: 28°C
Heat Index: 29°C
Tačka rose: 19°C
Vlažnost: 58%
Pritisak: 1012 hPa
Pregled: Vedro
Vidljivost: greater than 10 km
2020/08/14 13:30 LDOS 141330Z 31006KT CAVOK 28/19 Q1012